createdAt,value
2022-11-12T00:02:06.435Z,7.35
2022-11-12T00:06:07.956Z,7.34
2022-11-12T00:10:10.363Z,7.30
2022-11-12T00:14:11.758Z,7.28
2022-11-12T00:18:13.671Z,7.26
2022-11-12T00:22:17.411Z,7.25
2022-11-12T00:26:18.768Z,7.23
2022-11-12T00:30:20.060Z,7.21
2022-11-12T00:34:21.360Z,7.20
2022-11-12T00:38:22.696Z,7.09
2022-11-12T00:42:24.054Z,7.04
2022-11-12T00:46:25.354Z,7.04
2022-11-12T00:50:26.683Z,6.99
2022-11-12T00:54:27.991Z,6.97
2022-11-12T00:58:30.576Z,6.96
2022-11-12T01:02:33.666Z,6.97
2022-11-12T01:06:41.631Z,7.02
2022-11-12T01:10:42.982Z,7.05
2022-11-12T01:14:44.469Z,7.00
2022-11-12T01:18:46.038Z,6.96
2022-11-12T01:22:47.613Z,6.96
2022-11-12T01:26:48.930Z,6.98
2022-11-12T01:30:50.677Z,7.02
2022-11-12T01:34:53.184Z,7.03
2022-11-12T01:38:55.259Z,7.02
2022-11-12T01:42:56.552Z,7.02
2022-11-12T01:47:11.790Z,7.03
2022-11-12T01:51:13.461Z,7.03
2022-11-12T01:55:17.009Z,7.02
2022-11-12T01:59:29.383Z,7.03
2022-11-12T02:03:30.996Z,7.04
2022-11-12T02:07:32.699Z,7.04
2022-11-12T02:11:34.012Z,6.98
2022-11-12T02:15:35.533Z,6.96
2022-11-12T02:19:37.788Z,6.91
2022-11-12T02:23:39.049Z,6.91
2022-11-12T02:27:40.531Z,6.92
2022-11-12T02:31:41.785Z,6.87
2022-11-12T02:35:43.092Z,6.82
2022-11-12T02:39:44.412Z,6.81
2022-11-12T02:43:47.054Z,6.84
2022-11-12T02:47:48.582Z,6.79
2022-11-12T02:51:49.844Z,6.76
2022-11-12T02:55:51.127Z,6.67
2022-11-12T02:59:52.438Z,6.69
2022-11-12T03:03:53.774Z,6.69
2022-11-12T03:07:59.101Z,6.72
2022-11-12T03:12:00.414Z,6.76
2022-11-12T03:16:02.112Z,6.74
2022-11-12T03:20:03.514Z,6.73
2022-11-12T03:24:05.007Z,6.68
2022-11-12T03:28:08.232Z,6.65
2022-11-12T03:32:09.544Z,6.68
2022-11-12T03:36:10.911Z,6.70
2022-11-12T03:40:12.248Z,6.70
2022-11-12T03:44:13.513Z,6.66
2022-11-12T03:48:14.806Z,6.68
2022-11-12T03:52:16.091Z,6.69
2022-11-12T03:56:17.404Z,6.73
2022-11-12T04:00:18.988Z,6.71
2022-11-12T04:04:20.384Z,6.74
2022-11-12T04:08:37.999Z,6.75
2022-11-12T04:12:58.170Z,6.78
2022-11-12T04:17:18.053Z,6.77
2022-11-12T04:21:39.091Z,6.73
2022-11-12T04:25:59.030Z,6.73
2022-11-12T04:30:16.033Z,6.71
2022-11-12T04:34:29.558Z,6.68
2022-11-12T04:38:31.004Z,6.65
2022-11-12T04:42:50.987Z,6.62
2022-11-12T04:46:52.540Z,6.62
2022-11-12T04:50:55.500Z,6.63
2022-11-12T04:54:57.183Z,6.61
2022-11-12T04:58:58.429Z,6.58
2022-11-12T05:02:59.727Z,6.51
2022-11-12T05:07:01.355Z,6.53
2022-11-12T05:11:02.695Z,6.48
2022-11-12T05:15:04.681Z,6.39
2022-11-12T05:19:06.468Z,6.33
2022-11-12T05:23:08.013Z,6.31
2022-11-12T05:27:14.257Z,6.35
2022-11-12T05:31:15.564Z,6.39
2022-11-12T05:35:17.203Z,6.41
2022-11-12T05:39:18.476Z,6.44
2022-11-12T05:43:19.740Z,6.49
2022-11-12T05:47:20.974Z,6.49
2022-11-12T05:51:22.736Z,6.50
2022-11-12T05:55:24.032Z,6.49
2022-11-12T05:59:25.440Z,6.47
2022-11-12T06:03:26.805Z,6.41
2022-11-12T06:07:28.176Z,6.36
2022-11-12T06:11:29.471Z,6.36
2022-11-12T06:15:33.941Z,6.36
2022-11-12T06:19:39.355Z,6.36
2022-11-12T06:23:40.851Z,6.35
2022-11-12T06:27:42.479Z,6.33
2022-11-12T06:31:43.763Z,6.29
2022-11-12T06:35:45.062Z,6.23
2022-11-12T06:39:46.327Z,6.21
2022-11-12T06:43:47.615Z,6.19
2022-11-12T06:47:49.677Z,6.18
2022-11-12T06:51:51.324Z,6.17
2022-11-12T06:55:52.816Z,6.10
2022-11-12T06:59:54.147Z,6.09
2022-11-12T07:03:55.491Z,6.06
2022-11-12T07:07:56.739Z,6.02
2022-11-12T07:11:58.035Z,5.99
2022-11-12T07:16:00.398Z,6.01
2022-11-12T07:20:03.917Z,6.02
2022-11-12T07:24:05.589Z,5.99
2022-11-12T07:28:06.943Z,6.03
2022-11-12T07:32:08.204Z,5.99
2022-11-12T07:36:14.672Z,5.99
2022-11-12T07:40:16.159Z,6.01
2022-11-12T07:44:17.488Z,6.02
2022-11-12T07:48:18.831Z,6.04
2022-11-12T07:52:20.153Z,6.03
2022-11-12T07:56:22.432Z,5.98
2022-11-12T08:00:23.702Z,5.99
2022-11-12T08:04:24.936Z,6.01
2022-11-12T08:08:26.347Z,6.01
2022-11-12T08:12:28.980Z,5.91
2022-11-12T08:16:30.364Z,5.95
2022-11-12T08:20:31.691Z,6.02
2022-11-12T08:24:33.010Z,6.09
2022-11-12T08:28:34.944Z,6.13
2022-11-12T08:32:36.925Z,6.20
2022-11-12T08:36:39.136Z,6.24
2022-11-12T08:40:40.434Z,6.28
2022-11-12T08:44:41.735Z,6.34
2022-11-12T08:48:43.003Z,6.39
2022-11-12T08:52:44.715Z,6.41
2022-11-12T08:56:45.995Z,6.44
2022-11-12T09:00:47.493Z,6.46
2022-11-12T09:04:48.780Z,6.49
2022-11-12T09:08:50.025Z,6.56
2022-11-12T09:12:52.297Z,6.63
2022-11-12T09:16:53.616Z,6.64
2022-11-12T09:20:59.191Z,6.66
2022-11-12T09:25:00.520Z,6.70
2022-11-12T09:29:01.880Z,6.74
2022-11-12T09:33:03.450Z,6.77
2022-11-12T09:37:04.829Z,6.76
2022-11-12T09:41:24.897Z,6.77
2022-11-12T09:45:29.756Z,6.79
2022-11-12T09:49:33.255Z,6.84
2022-11-12T09:53:53.468Z,6.86
2022-11-12T09:57:54.740Z,6.89
2022-11-12T10:01:59.121Z,6.91
2022-11-12T10:06:10.086Z,6.94
2022-11-12T10:10:14.907Z,6.97
2022-11-12T10:14:22.310Z,6.95
2022-11-12T10:18:44.347Z,7.04
2022-11-12T10:22:51.956Z,7.10
2022-11-12T10:26:53.474Z,7.15
2022-11-12T10:30:57.176Z,7.18
2022-11-12T10:34:58.587Z,7.22
2022-11-12T10:38:59.864Z,7.22
2022-11-12T10:43:03.798Z,7.24
2022-11-12T10:47:23.520Z,7.30
2022-11-12T10:51:35.850Z,7.35
2022-11-12T10:55:57.262Z,7.41
2022-11-12T11:00:13.984Z,7.43
2022-11-12T11:04:29.047Z,7.46
2022-11-12T11:08:36.472Z,7.47
2022-11-12T11:12:38.160Z,7.46
2022-11-12T11:16:50.289Z,7.46
2022-11-12T11:21:01.804Z,7.45
2022-11-12T11:25:14.983Z,7.45
2022-11-12T11:29:32.257Z,7.49
2022-11-12T11:33:33.678Z,7.50
2022-11-12T11:37:41.996Z,7.49
2022-11-12T11:41:55.549Z,7.53
2022-11-12T11:46:06.618Z,7.49
2022-11-12T11:50:26.827Z,7.46
2022-11-12T11:54:28.084Z,7.43
2022-11-12T11:58:29.481Z,7.44
2022-11-12T12:02:46.317Z,7.43
2022-11-12T12:06:56.687Z,7.43
2022-11-12T12:11:10.326Z,7.40
2022-11-12T12:15:26.931Z,7.38
2022-11-12T12:19:56.513Z,7.39
2022-11-12T12:24:06.914Z,7.39
2022-11-12T12:28:14.605Z,7.37
2022-11-12T12:32:24.324Z,7.42
2022-11-12T12:36:30.453Z,7.43
2022-11-12T12:40:34.018Z,7.45
2022-11-12T12:45:01.328Z,7.52
2022-11-12T12:49:04.275Z,7.55
2022-11-12T12:53:15.531Z,7.55
2022-11-12T12:57:25.863Z,7.53
2022-11-12T13:01:29.130Z,7.55
2022-11-12T13:05:30.672Z,7.59
2022-11-12T13:09:33.266Z,7.60
2022-11-12T13:13:36.225Z,7.59
2022-11-12T13:17:48.047Z,7.58
2022-11-12T13:22:09.359Z,7.63
2022-11-12T13:26:29.503Z,7.63
2022-11-12T13:30:30.859Z,7.66
2022-11-12T13:34:33.420Z,7.68
2022-11-12T13:38:37.870Z,7.70
2022-11-12T13:42:48.180Z,7.70
2022-11-12T13:46:50.315Z,7.71
2022-11-12T13:50:53.107Z,7.73
2022-11-12T13:55:01.194Z,7.73
2022-11-12T13:59:29.011Z,7.74
2022-11-12T14:03:44.408Z,7.77
2022-11-12T14:08:05.764Z,7.79
2022-11-12T14:12:30.171Z,7.79
2022-11-12T14:16:31.391Z,7.75
2022-11-12T14:20:33.100Z,7.73
2022-11-12T14:24:34.763Z,7.77
2022-11-12T14:28:36.774Z,7.77
2022-11-12T14:32:38.856Z,7.76
2022-11-12T14:36:40.202Z,7.76
2022-11-12T14:40:46.623Z,7.75
2022-11-12T14:44:47.966Z,7.70
2022-11-12T14:48:52.612Z,7.68
2022-11-12T14:53:05.077Z,7.67
2022-11-12T14:57:06.857Z,7.63
2022-11-12T15:02:14.528Z,7.59
2022-11-12T15:06:02.072Z,7.57
2022-11-12T15:10:23.345Z,7.55
2022-11-12T15:14:24.858Z,7.48
2022-11-12T15:18:28.428Z,7.49
2022-11-12T15:22:29.847Z,7.47
2022-11-12T15:26:33.492Z,7.48
2022-11-12T15:30:34.864Z,7.45
2022-11-12T15:34:38.843Z,7.42
2022-11-12T15:38:40.163Z,7.40
2022-11-12T15:42:42.380Z,7.38
2022-11-12T15:46:43.975Z,7.37
2022-11-12T15:50:45.745Z,7.35
2022-11-12T15:54:47.287Z,7.33
2022-11-12T15:58:48.843Z,7.30
2022-11-12T16:02:55.833Z,7.30
2022-11-12T16:06:57.125Z,7.28
2022-11-12T16:10:59.944Z,7.28
2022-11-12T16:15:03.097Z,7.27
2022-11-12T16:19:04.416Z,7.25
2022-11-12T16:23:05.959Z,7.23
2022-11-12T16:27:07.694Z,7.25
2022-11-12T16:31:09.141Z,7.27
2022-11-12T16:35:10.974Z,7.24
2022-11-12T16:39:13.417Z,7.25
2022-11-12T16:43:14.795Z,7.27
2022-11-12T16:47:16.648Z,7.25
2022-11-12T16:51:19.156Z,7.27
2022-11-12T16:55:20.857Z,7.26
2022-11-12T16:59:22.251Z,7.27
2022-11-12T17:03:24.119Z,7.25
2022-11-12T17:07:25.519Z,7.26
2022-11-12T17:11:26.837Z,7.27
2022-11-12T17:15:28.072Z,7.25
2022-11-12T17:19:29.801Z,7.27
2022-11-12T17:23:31.143Z,7.28
2022-11-12T17:27:32.412Z,7.30
2022-11-12T17:31:33.743Z,7.30
2022-11-12T17:35:35.107Z,7.33
2022-11-12T17:39:36.534Z,7.32
2022-11-12T17:43:38.217Z,7.30
2022-11-12T17:47:40.713Z,7.28
2022-11-12T17:51:42.456Z,7.28
2022-11-12T17:55:43.802Z,7.28
2022-11-12T17:59:45.306Z,7.28
2022-11-12T18:03:49.955Z,7.30
2022-11-12T18:07:51.796Z,7.30
2022-11-12T18:11:56.766Z,7.29
2022-11-12T18:15:58.132Z,7.34
2022-11-12T18:19:59.426Z,7.35
2022-11-12T18:24:00.863Z,7.37
2022-11-12T18:28:02.304Z,7.37
2022-11-12T18:32:03.746Z,7.38
2022-11-12T18:36:14.035Z,7.39
2022-11-12T18:40:15.807Z,7.40
2022-11-12T18:44:18.334Z,7.41
2022-11-12T18:48:22.206Z,7.40
2022-11-12T18:52:23.825Z,7.40
2022-11-12T18:56:26.370Z,7.41
2022-11-12T19:00:27.615Z,7.41
2022-11-12T19:04:29.150Z,7.42
2022-11-12T19:08:30.469Z,7.43
2022-11-12T19:12:31.794Z,7.46
2022-11-12T19:16:33.260Z,7.47
2022-11-12T19:20:34.620Z,7.47
2022-11-12T19:24:35.921Z,7.48
2022-11-12T19:28:37.652Z,7.48
2022-11-12T19:32:39.160Z,7.50
2022-11-12T19:36:41.420Z,7.48
2022-11-12T19:40:42.663Z,7.49
2022-11-12T19:44:44.358Z,7.51
2022-11-12T19:48:45.693Z,7.52
2022-11-12T19:52:47.102Z,7.53
2022-11-12T19:56:48.359Z,7.53
2022-11-12T20:00:49.673Z,7.53
2022-11-12T20:04:51.066Z,7.55
2022-11-12T20:08:53.074Z,7.55
2022-11-12T20:12:54.489Z,7.58
2022-11-12T20:16:55.913Z,7.61
2022-11-12T20:20:57.331Z,7.62
2022-11-12T20:24:59.378Z,7.63
2022-11-12T20:29:00.650Z,7.64
2022-11-12T20:33:03.118Z,7.67
2022-11-12T20:37:04.391Z,7.68
2022-11-12T20:41:06.943Z,7.69
2022-11-12T20:45:08.565Z,7.70
2022-11-12T20:49:09.883Z,7.73
2022-11-12T20:53:12.599Z,7.75
2022-11-12T20:57:13.877Z,7.76
2022-11-12T21:01:16.001Z,7.78
2022-11-12T21:05:17.318Z,7.79
2022-11-12T21:09:18.655Z,7.80
2022-11-12T21:13:20.548Z,7.77
2022-11-12T21:17:21.872Z,7.78
2022-11-12T21:21:23.475Z,7.79
2022-11-12T21:25:24.794Z,7.81
2022-11-12T21:29:26.057Z,7.81
2022-11-12T21:33:27.427Z,7.83
2022-11-12T21:37:29.307Z,7.84
2022-11-12T21:41:33.344Z,7.85
2022-11-12T21:45:34.799Z,7.87
2022-11-12T21:49:36.066Z,7.88
2022-11-12T21:53:38.319Z,7.88
2022-11-12T21:57:39.595Z,7.89
2022-11-12T22:01:41.438Z,7.88
2022-11-12T22:05:42.752Z,7.87
2022-11-12T22:09:44.414Z,7.86
2022-11-12T22:13:46.209Z,7.86
2022-11-12T22:17:47.566Z,7.85
2022-11-12T22:21:48.823Z,7.83
2022-11-12T22:25:50.778Z,7.85
2022-11-12T22:29:52.424Z,7.84
2022-11-12T22:33:53.962Z,7.81
2022-11-12T22:37:55.298Z,7.78
2022-11-12T22:41:56.892Z,7.77
2022-11-12T22:46:03.469Z,7.76
2022-11-12T22:50:05.058Z,7.74
2022-11-12T22:54:07.755Z,7.71
2022-11-12T22:58:09.034Z,7.71
2022-11-12T23:02:10.599Z,7.71
2022-11-12T23:06:12.181Z,7.68
2022-11-12T23:10:13.464Z,7.67
2022-11-12T23:14:14.962Z,7.62
2022-11-12T23:18:16.260Z,7.61
2022-11-12T23:22:17.902Z,7.60
2022-11-12T23:26:21.104Z,7.58
2022-11-12T23:30:22.388Z,7.56
2022-11-12T23:34:23.712Z,7.52
2022-11-12T23:38:25.205Z,7.49
2022-11-12T23:42:28.078Z,7.50
2022-11-12T23:46:30.171Z,7.48
2022-11-12T23:50:31.464Z,7.47
2022-11-12T23:54:32.939Z,7.47
2022-11-12T23:58:34.234Z,7.44
